createdAt,value
2023-03-02T00:03:35.188Z,2.50
2023-03-02T00:08:38.864Z,2.50
2023-03-02T00:13:42.572Z,2.50
2023-03-02T00:18:45.133Z,2.60
2023-03-02T00:23:47.625Z,2.40
2023-03-02T00:28:50.161Z,3.90
2023-03-02T00:33:56.285Z,2.70
2023-03-02T00:38:58.855Z,2.30
2023-03-02T00:44:01.380Z,2.30
2023-03-02T00:49:03.968Z,2.10
2023-03-02T00:54:06.533Z,3.50
2023-03-02T00:59:26.400Z,2.40
2023-03-02T01:04:38.568Z,3.10
2023-03-02T01:09:43.235Z,2.50
2023-03-02T01:14:48.473Z,3.00
2023-03-02T01:19:52.310Z,2.10
2023-03-02T01:24:54.793Z,2.20
2023-03-02T01:29:57.307Z,2.70
2023-03-02T01:34:59.852Z,2.80
2023-03-02T01:40:05.728Z,2.40
2023-03-02T01:45:45.556Z,2.40
2023-03-02T01:50:48.316Z,1.90
2023-03-02T01:55:51.210Z,2.80
2023-03-02T02:00:55.582Z,1.90
2023-03-02T02:06:18.029Z,1.90
2023-03-02T02:11:20.762Z,1.40
2023-03-02T02:16:23.329Z,1.50
2023-03-02T02:21:28.069Z,1.60
2023-03-02T02:26:40.791Z,1.50
2023-03-02T02:31:57.382Z,1.40
2023-03-02T02:37:06.903Z,1.50
2023-03-02T02:42:19.674Z,1.40
2023-03-02T02:47:22.828Z,1.80
2023-03-02T02:52:28.183Z,2.20
2023-03-02T02:57:31.022Z,2.30
2023-03-02T03:02:39.810Z,2.50
2023-03-02T03:07:43.069Z,2.00
2023-03-02T03:12:46.272Z,1.90
2023-03-02T03:17:56.040Z,2.20
2023-03-02T03:23:00.708Z,2.80
2023-03-02T03:28:04.012Z,3.20
2023-03-02T03:33:06.752Z,3.70
2023-03-02T03:38:09.266Z,2.90
2023-03-02T03:43:13.707Z,1.90
2023-03-02T03:48:16.163Z,1.80
2023-03-02T03:53:18.725Z,2.00
2023-03-02T03:58:21.278Z,2.80
2023-03-02T04:03:23.857Z,2.10
2023-03-02T04:08:26.437Z,1.70
2023-03-02T04:13:28.956Z,1.70
2023-03-02T04:18:31.439Z,1.70
2023-03-02T04:23:33.929Z,2.00
2023-03-02T04:28:36.536Z,2.20
2023-03-02T04:33:39.120Z,1.90
2023-03-02T04:38:41.739Z,1.80
2023-03-02T04:43:44.269Z,2.30
2023-03-02T04:48:46.983Z,2.60
2023-03-02T04:53:55.173Z,2.70
2023-03-02T04:58:58.193Z,2.40
2023-03-02T05:04:03.119Z,2.20
2023-03-02T05:09:06.190Z,2.00
2023-03-02T05:14:11.820Z,2.40
2023-03-02T05:19:14.707Z,2.90
2023-03-02T05:24:17.702Z,4.10
2023-03-02T05:29:20.285Z,4.80
2023-03-02T05:34:22.866Z,3.70
2023-03-02T05:39:25.429Z,3.80
2023-03-02T05:44:27.943Z,4.10
2023-03-02T05:49:30.415Z,3.40
2023-03-02T05:54:32.920Z,3.20
2023-03-02T05:59:35.551Z,4.90
2023-03-02T06:04:43.022Z,4.40
2023-03-02T06:09:45.662Z,4.00
2023-03-02T06:14:48.847Z,3.20
2023-03-02T06:19:51.348Z,4.00
2023-03-02T06:24:56.611Z,4.10
2023-03-02T06:29:59.211Z,5.40
2023-03-02T06:35:03.549Z,6.00
2023-03-02T06:40:10.817Z,5.30
2023-03-02T06:45:13.398Z,11.30
2023-03-02T06:50:16.042Z,5.10
2023-03-02T06:55:18.660Z,5.20
2023-03-02T07:00:28.265Z,5.70
2023-03-02T07:05:33.920Z,5.20
2023-03-02T07:10:37.874Z,6.50
2023-03-02T07:15:40.583Z,7.00
2023-03-02T07:20:43.159Z,6.80
2023-03-02T07:25:45.700Z,4.80
2023-03-02T07:30:48.282Z,4.60
2023-03-02T07:35:50.996Z,3.60
2023-03-02T07:40:53.701Z,4.80
2023-03-02T07:45:59.683Z,5.90
2023-03-02T07:51:04.514Z,6.10
2023-03-02T07:56:11.443Z,6.20
2023-03-02T08:01:15.017Z,3.80
2023-03-02T08:06:17.924Z,7.50
2023-03-02T08:11:20.485Z,7.10
2023-03-02T08:16:24.793Z,6.90
2023-03-02T08:21:28.834Z,6.90
2023-03-02T08:26:31.425Z,5.20
2023-03-02T08:31:34.304Z,4.10
2023-03-02T08:36:37.061Z,5.80
2023-03-02T08:41:39.887Z,6.40
2023-03-02T08:46:42.415Z,7.80
2023-03-02T08:51:46.045Z,6.30
2023-03-02T08:56:49.253Z,6.90
2023-03-02T09:01:51.744Z,7.70
2023-03-02T09:06:54.302Z,7.60
2023-03-02T09:11:56.916Z,7.00
2023-03-02T09:16:59.517Z,6.30
2023-03-02T09:22:02.105Z,5.00
2023-03-02T09:27:04.655Z,6.60
2023-03-02T09:32:07.217Z,9.60
2023-03-02T09:37:09.758Z,6.00
2023-03-02T09:42:50.844Z,6.90
2023-03-02T09:47:58.405Z,9.00
2023-03-02T09:53:23.871Z,6.00
2023-03-02T09:58:34.293Z,6.60
2023-03-02T10:04:01.384Z,6.40
2023-03-02T10:09:03.990Z,5.80
2023-03-02T10:14:24.138Z,5.70
2023-03-02T10:19:41.696Z,4.50
2023-03-02T10:25:01.868Z,5.10
2023-03-02T10:30:21.689Z,5.70
2023-03-02T10:35:26.848Z,6.90
2023-03-02T10:41:03.335Z,5.50
2023-03-02T10:46:08.705Z,6.00
2023-03-02T10:51:22.046Z,5.10
2023-03-02T10:56:24.690Z,4.50
2023-03-02T11:01:27.243Z,5.00
2023-03-02T11:06:30.208Z,5.60
2023-03-02T11:11:33.596Z,4.60
2023-03-02T11:16:36.446Z,3.60
2023-03-02T11:21:58.453Z,4.30
2023-03-02T11:27:07.999Z,4.20
2023-03-02T11:32:20.058Z,3.90
2023-03-02T11:37:29.564Z,3.50
2023-03-02T11:42:36.153Z,4.10
2023-03-02T11:47:43.252Z,3.90
2023-03-02T11:52:52.120Z,4.10
2023-03-02T12:03:06.564Z,4.00
2023-03-02T12:08:15.185Z,5.00
2023-03-02T12:13:26.020Z,5.00
2023-03-02T12:18:44.086Z,5.80
2023-03-02T12:23:49.792Z,5.30
2023-03-02T12:29:06.711Z,5.20
2023-03-02T12:34:24.624Z,5.00
2023-03-02T12:39:33.048Z,4.50
2023-03-02T12:44:55.269Z,4.90
2023-03-02T12:50:01.920Z,4.40
2023-03-02T12:55:18.096Z,3.70
2023-03-02T13:00:24.780Z,5.00
2023-03-02T13:05:33.494Z,4.60
2023-03-02T13:10:40.199Z,4.20
2023-03-02T13:15:53.034Z,4.10
2023-03-02T13:20:55.776Z,4.50
2023-03-02T13:26:00.997Z,4.70
2023-03-02T13:31:07.073Z,5.10
2023-03-02T13:41:27.726Z,4.50
2023-03-02T13:46:36.165Z,5.40
2023-03-02T13:51:47.583Z,5.10
2023-03-02T13:56:52.167Z,5.00
2023-03-02T14:01:55.288Z,4.30
2023-03-02T14:06:57.809Z,4.90
2023-03-02T14:12:00.335Z,6.40
2023-03-02T14:17:16.710Z,6.20
2023-03-02T14:22:20.125Z,5.40
2023-03-02T14:27:28.259Z,5.00
2023-03-02T14:32:31.272Z,5.10
2023-03-02T14:37:33.931Z,4.40
2023-03-02T14:42:36.442Z,4.00
2023-03-02T14:47:39.668Z,3.60
2023-03-02T14:52:48.115Z,3.30
2023-03-02T14:57:54.608Z,3.00
2023-03-02T15:02:58.526Z,4.10
2023-03-02T15:08:01.213Z,3.50
2023-03-02T15:13:03.842Z,3.50
2023-03-02T15:18:06.813Z,2.90
2023-03-02T15:23:09.357Z,3.20
2023-03-02T15:28:11.871Z,3.80
2023-03-02T15:33:14.412Z,3.90
2023-03-02T15:38:16.983Z,4.10
2023-03-02T15:43:19.591Z,3.80
2023-03-02T15:48:22.099Z,4.90
2023-03-02T15:53:25.206Z,5.10
2023-03-02T15:58:27.688Z,5.70
2023-03-02T16:03:30.206Z,6.10
2023-03-02T16:08:32.745Z,8.30
2023-03-02T16:13:35.592Z,9.20
2023-03-02T16:18:38.097Z,7.30
2023-03-02T16:23:40.579Z,5.70
2023-03-02T16:28:43.204Z,5.80
2023-03-02T16:33:46.952Z,5.90
2023-03-02T16:38:49.495Z,5.50
2023-03-02T16:43:54.811Z,5.10
2023-03-02T16:48:57.927Z,6.20
2023-03-02T16:54:00.592Z,6.80
2023-03-02T16:59:03.164Z,7.10
2023-03-02T17:04:06.184Z,9.00
2023-03-02T17:09:08.821Z,8.60
2023-03-02T17:14:11.835Z,10.00
2023-03-02T17:19:14.489Z,9.50
2023-03-02T17:24:17.056Z,9.60
2023-03-02T17:29:19.716Z,10.00
2023-03-02T17:34:22.312Z,9.40
2023-03-02T17:39:25.196Z,11.80
2023-03-02T17:44:27.826Z,9.10
2023-03-02T17:49:31.127Z,11.20
2023-03-02T17:54:33.654Z,16.00
2023-03-02T17:59:36.502Z,15.70
2023-03-02T18:04:39.139Z,18.20
2023-03-02T18:09:43.190Z,38.20
2023-03-02T18:14:45.767Z,31.20
2023-03-02T18:19:48.847Z,23.40
2023-03-02T18:24:52.847Z,56.00
2023-03-02T18:29:55.526Z,42.20
2023-03-02T18:34:58.188Z,36.10
2023-03-02T18:40:00.976Z,37.10
2023-03-02T18:45:05.005Z,46.20
2023-03-02T18:50:08.108Z,31.90
2023-03-02T18:55:11.373Z,36.40
2023-03-02T19:00:21.634Z,30.70
2023-03-02T19:05:27.025Z,38.60
2023-03-02T19:10:29.638Z,43.70
2023-03-02T19:15:34.755Z,28.90
2023-03-02T19:20:37.314Z,33.60
2023-03-02T19:25:40.115Z,35.00
2023-03-02T19:30:42.752Z,41.60
2023-03-02T19:35:45.543Z,37.30
2023-03-02T19:40:48.118Z,32.20
2023-03-02T19:45:50.792Z,33.90
2023-03-02T19:50:53.429Z,25.10
2023-03-02T19:56:00.491Z,26.10
2023-03-02T20:01:04.360Z,64.80
2023-03-02T20:06:07.051Z,27.90
2023-03-02T20:11:11.200Z,23.70
2023-03-02T20:16:14.270Z,28.10
2023-03-02T20:21:16.957Z,25.70
2023-03-02T20:26:20.269Z,26.30
2023-03-02T20:31:24.822Z,27.00
2023-03-02T20:36:31.598Z,27.30
2023-03-02T20:41:35.147Z,18.40
2023-03-02T20:46:42.573Z,17.30
2023-03-02T20:51:52.595Z,18.80
2023-03-02T20:56:55.781Z,17.30
2023-03-02T21:01:58.588Z,29.30
2023-03-02T21:07:01.342Z,23.60
2023-03-02T21:12:05.402Z,24.90
2023-03-02T21:17:08.770Z,24.70
2023-03-02T21:22:11.326Z,27.90
2023-03-02T21:27:13.947Z,22.40
2023-03-02T21:32:16.793Z,21.20
2023-03-02T21:37:19.405Z,22.80
2023-03-02T21:42:21.927Z,25.00
2023-03-02T21:47:24.455Z,26.40
2023-03-02T21:52:27.440Z,32.00
2023-03-02T21:57:30.404Z,29.40
2023-03-02T22:02:32.934Z,31.40
2023-03-02T22:07:35.536Z,29.20
2023-03-02T22:12:38.090Z,26.20
2023-03-02T22:17:41.981Z,23.20
2023-03-02T22:22:44.915Z,26.60
2023-03-02T22:27:47.514Z,32.40
2023-03-02T22:32:50.145Z,54.10
2023-03-02T22:38:02.019Z,52.10
2023-03-02T22:43:25.492Z,32.10
2023-03-02T22:48:30.161Z,28.60
2023-03-02T22:53:34.053Z,25.00
2023-03-02T22:58:47.964Z,24.80
2023-03-02T23:04:15.219Z,23.60
2023-03-02T23:09:21.730Z,22.70
2023-03-02T23:14:47.574Z,21.80
2023-03-02T23:19:51.079Z,18.20
2023-03-02T23:24:53.955Z,16.50
2023-03-02T23:29:56.617Z,15.10
2023-03-02T23:34:59.158Z,18.70
2023-03-02T23:40:01.676Z,19.50
2023-03-02T23:45:05.333Z,16.40
2023-03-02T23:50:08.846Z,17.10
2023-03-02T23:55:11.694Z,18.10
